Adventure of The Seas — C6SA3 — position and weather

sailwx.info

Track history (hours):
 
Tides and Currents Weather Stations Pressure Air Temp Water Temp Dewpoint Dewpoint Depression Visibility Wind Speed Wind Dir Waves Ship Positions

Adventure of The Seas

Operator: Royal Caribbean Cruises Ltd

Last reported at 2018-Apr-16 10:09 UTC. Time now 2018-Apr-21 17:29 UTC.
Position N 17°20' W 062°55'.

Type: Passenger vessel. MMSI: 311263000.

Date/timePositionNaut miles runAvg speedWind from/ knotsBaromVisibWave heightAir tempDewpointWater temp
2018-Apr-16 10:09N 17°20' W 062°55'210.9
2018-Apr-16 09:56N 17°21' W 062°57'710.7
2018-Apr-16 09:16N 17°25' W 063°04'3 9.7
2018-Apr-16 08:58N 17°28' W 063°05'510.4
2018-Apr-16 08:28N 17°33' W 063°06'610.6
2018-Apr-16 07:53N 17°39' W 063°08'410.8
2018-Apr-16 07:30N 17°43' W 063°09'611.3
2018-Apr-16 06:59N 17°45' W 063°15'711.6
2018-Apr-16 06:25N 17°48' W 063°21'611.8
2018-Apr-16 05:54N 17°50' W 063°27'5811.1
2018-Apr-16 00:44N 18°07' W 064°25'210.4
2018-Apr-16 00:30N 18°07' W 064°27'510.5
2018-Apr-16 00:00N 18°08' W 064°33'510.6
2018-Apr-15 23:30N 18°10' W 064°38'510.8
2018-Apr-15 23:00N 18°11' W 064°44'510.9
2018-Apr-15 22:30N 18°12' W 064°49'811.4
2018-Apr-15 21:46N 18°15' W 064°57'3 9.9
2018-Apr-15 21:29N 18°17' W 064°60'  
2018-Apr-13 06:47N 14°43' W 061°33'517.0
2018-Apr-13 06:30N 14°40' W 061°29'816.9
2018-Apr-13 06:00N 14°35' W 061°23'816.4
2018-Apr-13 05:30N 14°30' W 061°16'815.7
2018-Apr-13 05:00N 14°25' W 061°10'816.2
2018-Apr-13 04:30N 14°20' W 061°03'815.9
2018-Apr-13 04:00N 14°15' W 060°56'815.7
2018-Apr-13 03:30N 14°10' W 060°50'815.9
2018-Apr-13 03:00N 14°05' W 060°44'149 3.0
2018-Apr-11 02:05N 16°12' W 062°05'114.5
2018-Apr-11 02:01N 16°13' W 062°05'714.3
2018-Apr-11 01:30N 16°20' W 062°05'714.0
2018-Apr-11 01:00N 16°27' W 062°05'714.2
2018-Apr-11 00:31N 16°34' W 062°05'714.8
2018-Apr-11 00:00N 16°41' W 062°04'715.0
2018-Apr-10 23:30N 16°49' W 062°03'714.9
2018-Apr-10 23:00N 16°56' W 062°02'714.3
2018-Apr-10 22:30N 17°03' W 062°01'611.5
2018-Apr-10 22:00N 17°09' W 061°59'510.6
2018-Apr-10 21:30N 17°08' W 061°53'2 4.8
2018-Apr-10 21:01N 17°07' W 061°51'0 0.1
2018-Apr-10 20:30N 17°07' W 061°51'0 0.0
2018-Apr-10 20:00N 17°07' W 061°51'0 0.0
2018-Apr-10 19:31N 17°07' W 061°51'0 0.0
2018-Apr-10 19:00N 17°07' W 061°51'0 0.0
2018-Apr-10 18:30N 17°07' W 061°51'0 0.0
2018-Apr-10 18:00N 17°07' W 061°51'0 0.0
2018-Apr-10 17:31N 17°07' W 061°51'0 0.0
2018-Apr-10 17:01N 17°07' W 061°51'0 0.0
2018-Apr-10 16:30N 17°07' W 061°51'0 0.0
2018-Apr-10 16:00N 17°07' W 061°51'0 0.0
2018-Apr-10 15:30N 17°07' W 061°51'0 0.0
2018-Apr-10 15:01N 17°07' W 061°51'0 0.0
2018-Apr-10 14:31N 17°07' W 061°51'0 0.0
2018-Apr-10 14:00N 17°07' W 061°51'0 0.0
2018-Apr-10 13:30N 17°07' W 061°51'0 0.0
2018-Apr-10 13:01N 17°07' W 061°51'0 0.0
2018-Apr-10 12:30N 17°07' W 061°51'0 0.0
2018-Apr-10 12:00N 17°07' W 061°51'2 3.3
2018-Apr-10 11:30N 17°08' W 061°52'4 7.6
2018-Apr-10 11:01N 17°09' W 061°56'5 9.9
2018-Apr-10 10:30N 17°12' W 062°01'5 9.9
2018-Apr-10 10:00N 17°14' W 062°05'510.2
2018-Apr-10 09:30N 17°16' W 062°10'510.0
2018-Apr-10 09:00N 17°19' W 062°15'510.0
2018-Apr-10 08:30N 17°21' W 062°19'510.0
2018-Apr-10 08:00N 17°24' W 062°24'5 9.3
2018-Apr-10 07:31N 17°27' W 062°27'5 9.3
2018-Apr-10 07:00N 17°31' W 062°30'5 9.9
2018-Apr-10 06:27N 17°35' W 062°34'5 9.6
2018-Apr-10 05:58N 17°36' W 062°39'1410.4
2018-Apr-10 04:36N 17°28' W 062°51'3 9.6
2018-Apr-10 04:19N 17°26' W 062°53'16 0.6
2018-Apr-09 01:47N 17°37' W 063°06'2 5.5
2018-Apr-09 01:29N 17°38' W 063°06'3 5.5
2018-Apr-09 00:59N 17°41' W 063°06'3 5.6
2018-Apr-09 00:29N 17°44' W 063°06'3 5.5
2018-Apr-08 23:58N 17°47' W 063°06'3 5.2
2018-Apr-08 23:24N 17°49' W 063°06'2 5.3
2018-Apr-08 22:58N 17°52' W 063°06'3 5.6
2018-Apr-08 22:24N 17°55' W 063°06'3 5.2
2018-Apr-08 21:54N 17°58' W 063°06'2 4.9
2018-Apr-08 21:29N 17°60' W 063°05'3 5.4
2018-Apr-08 20:59N 18°01' W 063°03'0 0.2
2018-Apr-08 19:42N 18°01' W 063°03'0 0.0
2018-Apr-08 19:12N 18°01' W 063°03'0 0.0
2018-Apr-08 19:00N 18°01' W 063°03'0 0.0
2018-Apr-08 15:48N 18°01' W 063°03'0 0.0
2018-Apr-08 15:30N 18°01' W 063°03'0 0.0
2018-Apr-08 11:48N 18°01' W 063°03'0 0.6
2018-Apr-08 11:28N 18°01' W 063°03'1011.7
2018-Apr-08 10:38N 18°01' W 063°13'517.5
2018-Apr-08 10:22N 18°02' W 063°18'716.9
2018-Apr-08 09:57N 18°02' W 063°25'818.0
2018-Apr-08 09:30N 18°03' W 063°34'91 3.1
2018-Apr-07 03:54N 18°20' W 065°07'615.3
2018-Apr-07 03:30N 18°16' W 065°03'815.2
2018-Apr-07 02:59N 18°13' W 064°55'918.9
2018-Apr-07 02:30N 18°11' W 064°46'6818.8
2018-Apr-06 22:55N 18°04' W 063°35'1019.3
2018-Apr-06 22:25N 18°02' W 063°25'819.2
2018-Apr-06 22:00N 18°01' W 063°17'1118.8
2018-Apr-06 21:26N 18°00' W 063°06'3 4.7
2018-Apr-06 20:49N 18°01' W 063°03'0 0.0
2018-Apr-06 20:22N 18°01' W 063°03'0 0.0
2018-Apr-06 19:52N 18°01' W 063°03'0 0.0
2018-Apr-06 18:37N 18°01' W 063°03'0 0.0
2018-Apr-06 18:22N 18°01' W 063°03'0 0.0
2018-Apr-06 17:52N 18°01' W 063°03'0 0.0
2018-Apr-06 17:22N 18°01' W 063°03'0 0.0
2018-Apr-06 16:52N 18°01' W 063°03'0 0.0
2018-Apr-06 16:10N 18°01' W 063°03'0 0.0
2018-Apr-06 15:52N 18°01' W 063°03'0 0.0
2018-Apr-06 15:25N 18°01' W 063°03'0 0.0
2018-Apr-06 14:55N 18°01' W 063°03'0 0.0
2018-Apr-06 14:28N 18°01' W 063°03'0 0.0
2018-Apr-06 13:58N 18°01' W 063°03'0 0.0
2018-Apr-06 13:25N 18°01' W 063°03'0 0.0
2018-Apr-06 12:58N 18°01' W 063°03'0 0.0
2018-Apr-06 12:28N 18°01' W 063°03'0 0.0
2018-Apr-06 11:56N 18°01' W 063°03'1 1.6
2018-Apr-06 11:27N 18°00' W 063°04'510.1
2018-Apr-06 10:56N 17°59' W 063°09'715.2
2018-Apr-06 10:29N 17°56' W 063°15'  
Track history (hours):
 
Tides and Currents Weather Stations Pressure Air Temp Water Temp Dewpoint Dewpoint Depression Visibility Wind Speed Wind Dir Waves Ship Positions

Adventure of The Seas

Operator: Royal Caribbean Cruises Ltd

Last reported at 2018-Apr-16 10:09 UTC. Time now 2018-Apr-21 17:29 UTC.
Position N 17°20' W 062°55'.

Type: Passenger vessel. MMSI: 311263000.

Date/timePositionNaut miles runAvg speedWind from/ knotsBaromVisibWave heightAir tempDewpointWater temp
2018-Apr-16 10:09N 17°20' W 062°55'210.9
2018-Apr-16 09:56N 17°21' W 062°57'710.7
2018-Apr-16 09:16N 17°25' W 063°04'3 9.7
2018-Apr-16 08:58N 17°28' W 063°05'510.4
2018-Apr-16 08:28N 17°33' W 063°06'610.6
2018-Apr-16 07:53N 17°39' W 063°08'410.8
2018-Apr-16 07:30N 17°43' W 063°09'611.3
2018-Apr-16 06:59N 17°45' W 063°15'711.6
2018-Apr-16 06:25N 17°48' W 063°21'611.8
2018-Apr-16 05:54N 17°50' W 063°27'5811.1
2018-Apr-16 00:44N 18°07' W 064°25'210.4
2018-Apr-16 00:30N 18°07' W 064°27'510.5
2018-Apr-16 00:00N 18°08' W 064°33'510.6
2018-Apr-15 23:30N 18°10' W 064°38'510.8
2018-Apr-15 23:00N 18°11' W 064°44'510.9
2018-Apr-15 22:30N 18°12' W 064°49'811.4
2018-Apr-15 21:46N 18°15' W 064°57'3 9.9
2018-Apr-15 21:29N 18°17' W 064°60'  
2018-Apr-13 06:47N 14°43' W 061°33'517.0
2018-Apr-13 06:30N 14°40' W 061°29'816.9
2018-Apr-13 06:00N 14°35' W 061°23'816.4
2018-Apr-13 05:30N 14°30' W 061°16'815.7
2018-Apr-13 05:00N 14°25' W 061°10'816.2
2018-Apr-13 04:30N 14°20' W 061°03'815.9
2018-Apr-13 04:00N 14°15' W 060°56'815.7
2018-Apr-13 03:30N 14°10' W 060°50'815.9
2018-Apr-13 03:00N 14°05' W 060°44'149 3.0
2018-Apr-11 02:05N 16°12' W 062°05'114.5
2018-Apr-11 02:01N 16°13' W 062°05'714.3
2018-Apr-11 01:30N 16°20' W 062°05'714.0
2018-Apr-11 01:00N 16°27' W 062°05'714.2
2018-Apr-11 00:31N 16°34' W 062°05'714.8
2018-Apr-11 00:00N 16°41' W 062°04'715.0
2018-Apr-10 23:30N 16°49' W 062°03'714.9
2018-Apr-10 23:00N 16°56' W 062°02'714.3
2018-Apr-10 22:30N 17°03' W 062°01'611.5
2018-Apr-10 22:00N 17°09' W 061°59'510.6
2018-Apr-10 21:30N 17°08' W 061°53'2 4.8
2018-Apr-10 21:01N 17°07' W 061°51'0 0.1
2018-Apr-10 20:30N 17°07' W 061°51'0 0.0
2018-Apr-10 20:00N 17°07' W 061°51'0 0.0
2018-Apr-10 19:31N 17°07' W 061°51'0 0.0
2018-Apr-10 19:00N 17°07' W 061°51'0 0.0
2018-Apr-10 18:30N 17°07' W 061°51'0 0.0
2018-Apr-10 18:00N 17°07' W 061°51'0 0.0
2018-Apr-10 17:31N 17°07' W 061°51'0 0.0
2018-Apr-10 17:01N 17°07' W 061°51'0 0.0
2018-Apr-10 16:30N 17°07' W 061°51'0 0.0
2018-Apr-10 16:00N 17°07' W 061°51'0 0.0
2018-Apr-10 15:30N 17°07' W 061°51'0 0.0
2018-Apr-10 15:01N 17°07' W 061°51'0 0.0
2018-Apr-10 14:31N 17°07' W 061°51'0 0.0
2018-Apr-10 14:00N 17°07' W 061°51'0 0.0
2018-Apr-10 13:30N 17°07' W 061°51'0 0.0
2018-Apr-10 13:01N 17°07' W 061°51'0 0.0
2018-Apr-10 12:30N 17°07' W 061°51'0 0.0
2018-Apr-10 12:00N 17°07' W 061°51'2 3.3
2018-Apr-10 11:30N 17°08' W 061°52'4 7.6
2018-Apr-10 11:01N 17°09' W 061°56'5 9.9
2018-Apr-10 10:30N 17°12' W 062°01'5 9.9
2018-Apr-10 10:00N 17°14' W 062°05'510.2
2018-Apr-10 09:30N 17°16' W 062°10'510.0
2018-Apr-10 09:00N 17°19' W 062°15'510.0
2018-Apr-10 08:30N 17°21' W 062°19'510.0
2018-Apr-10 08:00N 17°24' W 062°24'5 9.3
2018-Apr-10 07:31N 17°27' W 062°27'5 9.3
2018-Apr-10 07:00N 17°31' W 062°30'5 9.9
2018-Apr-10 06:27N 17°35' W 062°34'5 9.6
2018-Apr-10 05:58N 17°36' W 062°39'1410.4
2018-Apr-10 04:36N 17°28' W 062°51'3 9.6
2018-Apr-10 04:19N 17°26' W 062°53'16 0.6
2018-Apr-09 01:47N 17°37' W 063°06'2 5.5
2018-Apr-09 01:29N 17°38' W 063°06'3 5.5
2018-Apr-09 00:59N 17°41' W 063°06'3 5.6
2018-Apr-09 00:29N 17°44' W 063°06'3 5.5
2018-Apr-08 23:58N 17°47' W 063°06'3 5.2
2018-Apr-08 23:24N 17°49' W 063°06'2 5.3
2018-Apr-08 22:58N 17°52' W 063°06'3 5.6
2018-Apr-08 22:24N 17°55' W 063°06'3 5.2
2018-Apr-08 21:54N 17°58' W 063°06'2 4.9
2018-Apr-08 21:29N 17°60' W 063°05'3 5.4
2018-Apr-08 20:59N 18°01' W 063°03'0 0.2
2018-Apr-08 19:42N 18°01' W 063°03'0 0.0
2018-Apr-08 19:12N 18°01' W 063°03'0 0.0
2018-Apr-08 19:00N 18°01' W 063°03'0 0.0
2018-Apr-08 15:48N 18°01' W 063°03'0 0.0
2018-Apr-08 15:30N 18°01' W 063°03'0 0.0
2018-Apr-08 11:48N 18°01' W 063°03'0 0.6
2018-Apr-08 11:28N 18°01' W 063°03'1011.7
2018-Apr-08 10:38N 18°01' W 063°13'517.5
2018-Apr-08 10:22N 18°02' W 063°18'716.9
2018-Apr-08 09:57N 18°02' W 063°25'818.0
2018-Apr-08 09:30N 18°03' W 063°34'91 3.1
2018-Apr-07 03:54N 18°20' W 065°07'615.3
2018-Apr-07 03:30N 18°16' W 065°03'815.2
2018-Apr-07 02:59N 18°13' W 064°55'918.9
2018-Apr-07 02:30N 18°11' W 064°46'6818.8
2018-Apr-06 22:55N 18°04' W 063°35'1019.3
2018-Apr-06 22:25N 18°02' W 063°25'819.2
2018-Apr-06 22:00N 18°01' W 063°17'1118.8
2018-Apr-06 21:26N 18°00' W 063°06'3 4.7
2018-Apr-06 20:49N 18°01' W 063°03'0 0.0
2018-Apr-06 20:22N 18°01' W 063°03'0 0.0
2018-Apr-06 19:52N 18°01' W 063°03'0 0.0
2018-Apr-06 18:37N 18°01' W 063°03'0 0.0
2018-Apr-06 18:22N 18°01' W 063°03'0 0.0
2018-Apr-06 17:52N 18°01' W 063°03'0 0.0
2018-Apr-06 17:22N 18°01' W 063°03'0 0.0
2018-Apr-06 16:52N 18°01' W 063°03'0 0.0
2018-Apr-06 16:10N 18°01' W 063°03'0 0.0
2018-Apr-06 15:52N 18°01' W 063°03'0 0.0
2018-Apr-06 15:25N 18°01' W 063°03'0 0.0
2018-Apr-06 14:55N 18°01' W 063°03'0 0.0
2018-Apr-06 14:28N 18°01' W 063°03'0 0.0
2018-Apr-06 13:58N 18°01' W 063°03'0 0.0
2018-Apr-06 13:25N 18°01' W 063°03'0 0.0
2018-Apr-06 12:58N 18°01' W 063°03'0 0.0
2018-Apr-06 12:28N 18°01' W 063°03'0 0.0
2018-Apr-06 11:56N 18°01' W 063°03'1 1.6
2018-Apr-06 11:27N 18°00' W 063°04'510.1
2018-Apr-06 10:56N 17°59' W 063°09'715.2
2018-Apr-06 10:29N 17°56' W 063°15'  

Dump ship's entire track history